Time;durP1;ratioP1;P1;durP2;ratioP2;P2;SDS_P1;SDS_P2;PMS_P1;PMS_P2;Temp;Humidity;BMP_temperature;BMP_pressure;BME280_temperature;BME280_humidity;BME280_pressure;Samples;Min_cycle;Max_cycle;Signal;HPM_P1;HPM_P2
2023/01/03 00:01:31;;;;;;;;;;;;;;;8.19;100.00;98906.03;5126877;28;19924;-61
2023/01/03 00:03:58;;;;;;;;;;;;;;;8.16;100.00;98920.59;5123091;28;19931;-62
2023/01/03 00:06:27;;;;;;;;;;;;;;;8.15;100.00;98913.66;5122812;28;20000;-62
2023/01/03 00:08:53;;;;;;;;;;;;;;;8.11;100.00;98926.59;5126189;28;19924;-62
2023/01/03 00:12:22;;;;;;;;;;;;;;;8.08;100.00;98929.69;5126530;28;19924;-62
2023/01/03 00:14:07;;;;;;;;;;;;;;;8.12;100.00;98925.56;5122790;28;19924;-62
2023/01/03 00:16:33;;;;;;;;;;;;;;;8.14;100.00;98927.97;5123296;28;19924;-62
2023/01/03 00:18:59;;;;;;;;;;;;;;;8.15;100.00;98924.28;5125171;28;19931;-62
2023/01/03 00:21:27;;;;;;;;;;;;;;;8.11;100.00;98917.78;5126369;28;19924;-62
2023/01/03 00:23:53;;;;;;;;;;;;;;;8.11;100.00;98907.13;5127931;28;19927;-62
2023/01/03 00:26:20;;;;;;;;;;;;;;;8.13;100.00;98921.06;5133022;27;19935;-62
2023/01/03 00:28:46;;;;;;;;;;;;;;;8.19;100.00;98919.34;5125132;28;19924;-61
2023/01/03 00:31:12;;;;;;;;;;;;;;;8.23;100.00;98915.22;5126382;28;19935;-61
2023/01/03 00:33:39;;;;;;;;;;;;;;;8.23;100.00;98913.38;5125172;28;19924;-61
2023/01/03 00:36:07;;;;;;;;;;;;;;;8.27;100.00;98919.03;5125798;28;19989;-62
2023/01/03 00:38:36;;;;;;;;;;;;;;;8.27;100.00;98922.50;5127154;28;19931;-62
2023/01/03 00:41:05;;;;;;;;;;;;;;;8.27;100.00;98921.69;5130430;28;19920;-62
2023/01/03 00:43:31;;;;;;;;;;;;;;;8.30;100.00;98916.78;5130259;28;19924;-62
2023/01/03 00:45:58;;;;;;;;;;;;;;;8.25;100.00;98929.09;5126684;28;19924;-62
2023/01/03 00:48:25;;;;;;;;;;;;;;;8.32;100.00;98937.84;5126910;28;19920;-62
2023/01/03 00:50:51;;;;;;;;;;;;;;;8.27;100.00;98946.47;5129616;28;19935;-62
2023/01/03 00:53:17;;;;;;;;;;;;;;;8.24;100.00;98954.06;5130346;28;19945;-62
2023/01/03 00:55:45;;;;;;;;;;;;;;;8.18;100.00;98941.66;5144293;27;19920;-61
2023/01/03 00:58:11;;;;;;;;;;;;;;;8.18;100.00;98949.63;5126567;28;19924;-62
2023/01/03 01:00:38;;;;;;;;;;;;;;;8.29;100.00;98940.97;5127271;28;19924;-62
2023/01/03 01:03:04;;;;;;;;;;;;;;;8.12;100.00;98936.19;5130070;28;19927;-62
2023/01/03 01:05:31;;;;;;;;;;;;;;;8.24;100.00;98938.09;5129988;28;19924;-62
2023/01/03 01:07:57;;;;;;;;;;;;;;;8.19;100.00;98940.63;5117839;28;19924;-62
2023/01/03 01:10:24;;;;;;;;;;;;;;;8.15;100.00;98937.59;5117948;28;19939;-61
2023/01/03 01:12:54;;;;;;;;;;;;;;;8.12;100.00;98928.22;5117652;28;19928;-62
2023/01/03 01:15:20;;;;;;;;;;;;;;;8.16;100.00;98931.25;5117668;28;19924;-62
2023/01/03 01:17:47;;;;;;;;;;;;;;;8.22;100.00;98924.22;5117458;28;19935;-62
2023/01/03 01:20:13;;;;;;;;;;;;;;;8.31;100.00;98931.72;5117525;28;19924;-61
2023/01/03 01:22:39;;;;;;;;;;;;;;;8.35;100.00;98934.75;5117554;28;19924;-61
2023/01/03 01:25:06;;;;;;;;;;;;;;;8.34;100.00;98927.78;5137897;27;19939;-61
2023/01/03 01:27:32;;;;;;;;;;;;;;;8.32;100.00;98925.38;5129281;28;19924;-61
2023/01/03 01:30:00;;;;;;;;;;;;;;;8.28;100.00;98918.84;5125825;28;19923;-62
2023/01/03 01:32:26;;;;;;;;;;;;;;;8.36;100.00;98926.53;5125962;28;19924;-62
2023/01/03 01:34:53;;;;;;;;;;;;;;;8.37;100.00;98941.47;5128797;28;19930;-62
2023/01/03 01:37:19;;;;;;;;;;;;;;;8.39;100.00;98946.56;5129390;28;19920;-62
2023/01/03 01:39:45;;;;;;;;;;;;;;;8.36;100.00;98942.50;5127102;28;19939;-62
2023/01/03 01:44:58;;;;;;;;;;;;;;;8.32;100.00;98965.28;5125709;28;20037;-63
2023/01/03 01:47:28;;;;;;;;;;;;;;;8.28;100.00;98960.63;5124697;28;19932;-62
2023/01/03 01:49:56;;;;;;;;;;;;;;;8.32;100.00;98975.13;5128664;28;19934;-62
2023/01/03 01:52:23;;;;;;;;;;;;;;;8.34;100.00;98965.06;5128649;28;19928;-61
2023/01/03 01:54:51;;;;;;;;;;;;;;;8.32;100.00;98989.25;5136379;27;19935;-62
2023/01/03 01:57:20;;;;;;;;;;;;;;;8.29;100.00;98980.88;5128842;27;19941;-62
2023/01/03 01:59:47;;;;;;;;;;;;;;;8.40;100.00;98988.94;5126433;27;19924;-61
2023/01/03 02:02:14;;;;;;;;;;;;;;;8.45;100.00;98991.72;5125091;28;19931;-61
2023/01/03 02:04:42;;;;;;;;;;;;;;;8.21;100.00;98992.59;5125074;28;19928;-62
2023/01/03 02:07:08;;;;;;;;;;;;;;;8.33;100.00;98993.50;5128366;28;19928;-62
2023/01/03 02:09:35;;;;;;;;;;;;;;;8.33;100.00;98995.34;5128143;28;19972;-62
2023/01/03 02:14:54;;;;;;;;;;;;;;;10.24;100.00;99000.28;5126885;28;20013;-62
2023/01/03 02:17:26;;;;;;;;;;;;;;;10.90;100.00;99004.31;5128198;28;19935;-62
2023/01/03 02:20:02;;;;;;;;;;;;;;;10.67;100.00;99009.75;5125138;28;19924;-62
2023/01/03 02:22:37;;;;;;;;;;;;;;;9.96;100.00;99007.38;5124726;28;19928;-62
2023/01/03 02:25:23;;;;;;;;;;;;;;;10.43;100.00;98992.94;5116014;28;19932;-62
2023/01/03 02:28:11;;;;;;;;;;;;;;;11.21;100.00;98993.13;5124441;28;19920;-62
2023/01/03 02:30:40;;;;;;;;;;;;;;;11.53;100.00;98990.75;5124032;27;19924;-62
2023/01/03 02:33:10;;;;;;;;;;;;;;;11.67;100.00;98994.72;5127867;28;20545;-62
2023/01/03 02:35:38;;;;;;;;;;;;;;;11.71;100.00;98985.19;5127250;28;19946;-61
2023/01/03 02:38:10;;;;;;;;;;;;;;;11.30;100.00;98993.56;5124390;28;19931;-61
2023/01/03 02:40:39;;;;;;;;;;;;;;;10.63;100.00;98990.72;5125121;28;19923;-62
2023/01/03 02:43:08;;;;;;;;;;;;;;;10.34;100.00;98989.03;5127683;28;19935;-62
2023/01/03 02:45:52;;;;;;;;;;;;;;;10.03;100.00;98992.03;5127395;28;19919;-62
2023/01/03 02:48:22;;;;;;;;;;;;;;;9.98;100.00;98994.59;5124152;28;19924;-61
2023/01/03 02:50:49;;;;;;;;;;;;;;;11.20;100.00;98996.06;5126280;28;19935;-62
2023/01/03 02:53:18;;;;;;;;;;;;;;;11.65;100.00;98994.16;5127382;28;19924;-61
2023/01/03 02:55:44;;;;;;;;;;;;;;;11.48;100.00;98996.00;5141447;27;19919;-62
2023/01/03 02:58:15;;;;;;;;;;;;;;;10.97;100.00;98993.50;5123018;28;19924;-63
2023/01/03 03:00:47;;;;;;;;;;;;;;;10.67;100.00;98994.53;5125293;28;19985;-63
2023/01/03 03:03:16;;;;;;;;;;;;;;;10.26;100.00;99000.06;5127634;28;19923;-62
2023/01/03 03:05:45;;;;;;;;;;;;;;;10.09;100.00;98996.44;5125976;28;19930;-59
2023/01/03 03:08:11;;;;;;;;;;;;;;;9.95;100.00;99000.41;5123871;28;19928;-59
2023/01/03 03:13:25;;;;;;;;;;;;;;;9.68;100.00;99011.53;5127275;28;19924;-59
2023/01/03 03:15:57;;;;;;;;;;;;;;;9.58;100.00;99000.63;5124270;28;19935;-58
2023/01/03 03:18:30;;;;;;;;;;;;;;;9.57;100.00;98987.50;5123477;28;19924;-59
2023/01/03 03:26:33;;;;;;;;;;;;;;;9.26;100.00;99006.44;5115026;28;19977;-59
2023/01/03 03:29:01;;;;;;;;;;;;;;;9.10;100.00;99002.56;5123270;28;19928;-59
2023/01/03 03:31:31;;;;;;;;;;;;;;;9.15;100.00;99011.53;5123295;28;19924;-58
2023/01/03 03:34:00;;;;;;;;;;;;;;;9.20;100.00;99010.84;5114674;28;19927;-59
2023/01/03 03:36:32;;;;;;;;;;;;;;;9.26;100.00;99001.94;5114993;28;19924;-58
2023/01/03 03:38:59;;;;;;;;;;;;;;;9.12;100.00;99004.00;5118581;28;19935;-59
2023/01/03 03:47:06;;;;;;;;;;;;;;;8.99;100.00;99022.00;5123281;28;20359;-59
2023/01/03 03:49:38;;;;;;;;;;;;;;;9.00;100.00;99012.97;5123263;28;20013;-59
2023/01/03 03:52:06;;;;;;;;;;;;;;;8.92;100.00;99026.59;5126554;28;19920;-59
2023/01/03 03:54:34;;;;;;;;;;;;;;;8.89;100.00;99022.53;5134425;27;19923;-58
2023/01/03 03:57:04;;;;;;;;;;;;;;;9.00;100.00;99018.31;5126575;28;19928;-59
2023/01/03 03:59:31;;;;;;;;;;;;;;;9.01;100.00;99025.25;5126556;28;20460;-59
2023/01/03 04:01:58;;;;;;;;;;;;;;;8.99;100.00;99022.81;5114384;28;19924;-59
2023/01/03 04:04:28;;;;;;;;;;;;;;;8.97;100.00;99019.56;5114518;28;19920;-60
2023/01/03 04:06:56;;;;;;;;;;;;;;;9.00;100.00;99023.63;5114369;28;19942;-60
2023/01/03 04:09:22;;;;;;;;;;;;;;;8.99;100.00;99022.81;5114035;28;19928;-59
2023/01/03 04:11:49;;;;;;;;;;;;;;;8.95;100.00;99020.81;5114268;28;19920;-60
2023/01/03 04:14:15;;;;;;;;;;;;;;;8.98;100.00;99020.38;5114300;28;19928;-60
2023/01/03 04:16:41;;;;;;;;;;;;;;;8.84;100.00;99016.25;5114245;28;19928;-60
2023/01/03 04:19:08;;;;;;;;;;;;;;;8.83;100.00;99018.09;5113981;28;19931;-60
2023/01/03 04:21:36;;;;;;;;;;;;;;;8.84;100.00;99024.25;5113508;28;20392;-60
2023/01/03 04:24:04;;;;;;;;;;;;;;;8.89;100.00;99029.72;5113968;28;19940;-60
2023/01/03 04:26:30;;;;;;;;;;;;;;;8.94;100.00;99035.19;5114105;28;20341;-60
2023/01/03 04:28:57;;;;;;;;;;;;;;;8.91;100.00;99027.66;5114288;28;19924;-60
2023/01/03 04:31:23;;;;;;;;;;;;;;;8.92;100.00;99032.75;5114238;28;19947;-60
2023/01/03 04:33:50;;;;;;;;;;;;;;;8.93;100.00;99037.03;5114209;28;19924;-60
2023/01/03 04:36:17;;;;;;;;;;;;;;;8.97;100.00;99034.75;5114408;28;19950;-60
2023/01/03 04:38:44;;;;;;;;;;;;;;;8.92;100.00;99037.25;5114123;28;19927;-60
2023/01/03 04:41:12;;;;;;;;;;;;;;;8.87;100.00;99045.13;5114165;28;19924;-60
2023/01/03 04:46:22;;;;;;;;;;;;;;;8.53;100.00;99039.38;5114157;28;20009;-60
2023/01/03 04:48:48;;;;;;;;;;;;;;;8.35;100.00;99050.03;5113807;28;19924;-60
2023/01/03 04:51:14;;;;;;;;;;;;;;;8.24;100.00;99047.22;5114029;28;19931;-60
2023/01/03 04:53:41;;;;;;;;;;;;;;;8.22;100.00;99051.97;5113804;28;19928;-60
2023/01/03 04:56:07;;;;;;;;;;;;;;;8.25;100.00;99046.19;5113920;28;19935;-60
2023/01/03 04:58:35;;;;;;;;;;;;;;;8.34;100.00;99043.06;5122664;28;19920;-60
2023/01/03 05:01:02;;;;;;;;;;;;;;;8.42;100.00;99052.59;5125828;28;19931;-60
2023/01/03 05:03:29;;;;;;;;;;;;;;;8.49;100.00;99054.16;5125826;28;19919;-60
2023/01/03 05:05:58;;;;;;;;;;;;;;;8.55;100.00;99053.25;5122289;28;19928;-60
2023/01/03 05:08:24;;;;;;;;;;;;;;;8.63;100.00;99057.50;5122306;28;19927;-60
2023/01/03 05:10:51;;;;;;;;;;;;;;;8.66;100.00;99067.69;5124910;28;19924;-60
2023/01/03 05:13:17;;;;;;;;;;;;;;;8.63;100.00;99071.59;5125859;28;19947;-60
2023/01/03 05:15:45;;;;;;;;;;;;;;;8.68;100.00;99065.63;5123997;28;19931;-59
2023/01/03 05:18:11;;;;;;;;;;;;;;;8.68;100.00;99069.09;5122051;28;19920;-59
2023/01/03 05:26:08;;;;;;;;;;;;;;;8.62;100.00;99080.66;5124519;28;19935;-61
2023/01/03 05:28:35;;;;;;;;;;;;;;;8.58;100.00;99074.13;5126077;28;19920;-60
2023/01/03 05:31:02;;;;;;;;;;;;;;;8.54;100.00;99072.94;5129330;28;19939;-60
2023/01/03 05:33:29;;;;;;;;;;;;;;;8.49;100.00;99080.78;5129326;28;19931;-60
2023/01/03 05:35:55;;;;;;;;;;;;;;;8.53;100.00;99092.63;5125966;28;19931;-60
2023/01/03 05:38:22;;;;;;;;;;;;;;;8.49;100.00;99086.09;5125731;28;19935;-60
2023/01/03 05:40:49;;;;;;;;;;;;;;;8.53;100.00;99083.81;5127995;28;19927;-60
2023/01/03 05:43:15;;;;;;;;;;;;;;;8.51;100.00;99089.34;5129100;27;19935;-60
2023/01/03 05:45:41;;;;;;;;;;;;;;;8.49;100.00;99086.09;5127617;28;19934;-59
2023/01/03 05:48:09;;;;;;;;;;;;;;;8.49;100.00;99086.09;5125719;28;19924;-60
2023/01/03 05:50:35;;;;;;;;;;;;;;;8.49;100.00;99091.44;5126060;28;19931;-60
2023/01/03 05:53:02;;;;;;;;;;;;;;;8.49;100.00;99099.41;5129007;28;19924;-60
2023/01/03 05:55:29;;;;;;;;;;;;;;;8.49;100.00;99107.41;5121020;28;19920;-60
2023/01/03 05:57:55;;;;;;;;;;;;;;;8.46;100.00;99091.88;5125319;28;19947;-59
2023/01/03 06:00:21;;;;;;;;;;;;;;;8.47;100.00;99096.16;5125412;28;19924;-60
2023/01/03 06:02:48;;;;;;;;;;;;;;;8.45;100.00;99095.56;5127481;28;19939;-60
2023/01/03 06:05:15;;;;;;;;;;;;;;;8.44;100.00;99098.44;5128917;28;19928;-60
2023/01/03 06:07:42;;;;;;;;;;;;;;;8.41;100.00;99109.53;5127319;28;19946;-60
2023/01/03 06:10:09;;;;;;;;;;;;;;;8.44;100.00;99103.78;5125275;28;20515;-60
2023/01/03 06:12:35;;;;;;;;;;;;;;;8.45;100.00;99100.06;5125552;28;19931;-60
2023/01/03 06:15:01;;;;;;;;;;;;;;;8.45;100.00;99103.53;5128539;28;19923;-60
2023/01/03 06:20:12;;;;;;;;;;;;;;;8.38;100.00;99099.34;5125132;28;19924;-60
2023/01/03 06:22:40;;;;;;;;;;;;;;;8.29;100.00;99098.81;5125848;28;19924;-60
2023/01/03 06:25:06;;;;;;;;;;;;;;;8.29;100.00;99098.00;5123559;28;19935;-60
2023/01/03 06:27:33;;;;;;;;;;;;;;;8.33;100.00;99101.81;5124880;28;19930;-60
2023/01/03 06:29:59;;;;;;;;;;;;;;;8.36;100.00;99104.88;5124821;28;19924;-60
2023/01/03 06:32:25;;;;;;;;;;;;;;;8.35;100.00;99105.91;5124813;28;19947;-60
2023/01/03 06:34:52;;;;;;;;;;;;;;;8.29;100.00;99114.78;5127614;28;19931;-60
2023/01/03 06:37:18;;;;;;;;;;;;;;;8.32;100.00;99116.19;5128225;28;20570;-60
2023/01/03 06:39:46;;;;;;;;;;;;;;;8.28;100.00;99114.97;5126478;28;19924;-60
2023/01/03 06:53:12;;;;;;;;;;;;;;;8.28;100.00;99134.44;5124505;28;19924;-60
2023/01/03 06:55:41;;;;;;;;;;;;;;;8.27;100.00;99135.41;5116104;28;20472;-60
2023/01/03 06:58:07;;;;;;;;;;;;;;;8.25;100.00;99126.84;5124310;28;19931;-60
2023/01/03 07:00:35;;;;;;;;;;;;;;;8.29;100.00;99133.41;5124532;28;19935;-60
2023/01/03 07:03:01;;;;;;;;;;;;;;;8.32;100.00;99135.63;5126649;28;19935;-60
2023/01/03 07:05:27;;;;;;;;;;;;;;;8.33;100.00;99134.56;5126719;28;19923;-60
2023/01/03 07:07:54;;;;;;;;;;;;;;;8.30;100.00;99151.00;5124559;28;19930;-60
2023/01/03 07:10:20;;;;;;;;;;;;;;;8.28;100.00;99144.25;5124249;28;20415;-60
2023/01/03 07:15:32;;;;;;;;;;;;;;;8.26;100.00;99147.13;5127596;28;19924;-60
2023/01/03 07:17:58;;;;;;;;;;;;;;;8.28;100.00;99157.56;5123911;28;19927;-60
2023/01/03 07:20:25;;;;;;;;;;;;;;;8.27;100.00;99162.03;5123865;28;19927;-60
2023/01/03 07:22:51;;;;;;;;;;;;;;;8.32;100.00;99164.91;5126507;28;19931;-60
2023/01/03 07:25:18;;;;;;;;;;;;;;;8.31;100.00;99157.94;5120877;28;19931;-60
2023/01/03 07:27:44;;;;;;;;;;;;;;;8.29;100.00;99160.03;5123582;28;19935;-60
2023/01/03 07:30:13;;;;;;;;;;;;;;;8.27;100.00;99161.22;5123591;28;19932;-60
2023/01/03 07:32:39;;;;;;;;;;;;;;;8.26;100.00;99159.59;5124699;28;19934;-60
2023/01/03 07:35:06;;;;;;;;;;;;;;;8.26;100.00;99164.94;5127242;28;19924;-60
2023/01/03 07:37:32;;;;;;;;;;;;;;;8.27;100.00;99171.88;5126924;28;19934;-60
2023/01/03 07:39:58;;;;;;;;;;;;;;;8.29;100.00;99176.00;5123508;28;19924;-60
2023/01/03 07:45:09;;;;;;;;;;;;;;;8.21;100.00;99173.56;5122833;28;19942;-60
2023/01/03 07:47:37;;;;;;;;;;;;;;;8.08;100.00;99187.75;5123756;28;19924;-60
2023/01/03 07:50:03;;;;;;;;;;;;;;;8.02;100.00;99195.78;5126864;27;19923;-60
2023/01/03 07:52:29;;;;;;;;;;;;;;;8.01;100.00;99195.00;5126825;28;19924;-60
2023/01/03 07:54:56;;;;;;;;;;;;;;;8.06;100.00;99191.69;5115289;28;19928;-60
2023/01/03 07:57:22;;;;;;;;;;;;;;;8.09;100.00;99193.91;5121871;28;19930;-60
2023/01/03 07:59:48;;;;;;;;;;;;;;;8.16;100.00;99194.69;5124559;28;19920;-60
2023/01/03 08:02:15;;;;;;;;;;;;;;;8.12;100.00;99194.28;5123080;28;19920;-60
2023/01/03 08:04:43;;;;;;;;;;;;;;;8.10;100.00;99207.00;5124440;28;19928;-60
2023/01/03 08:07:09;;;;;;;;;;;;;;;8.09;100.00;99207.22;5126611;28;19919;-59
2023/01/03 08:15:04;;;;;;;;;;;;;;;8.19;100.00;99207.56;5123089;28;19920;-60
2023/01/03 08:17:30;;;;;;;;;;;;;;;8.04;100.00;99215.84;5122990;28;19924;-60
2023/01/03 08:19:58;;;;;;;;;;;;;;;7.95;100.00;99213.66;5126397;28;19931;-60
2023/01/03 08:22:24;;;;;;;;;;;;;;;7.92;100.00;99208.78;5126496;28;19919;-60
2023/01/03 08:24:50;;;;;;;;;;;;;;;7.95;100.00;99216.31;5115882;28;20280;-60
2023/01/03 08:27:17;;;;;;;;;;;;;;;8.00;100.00;99216.47;5120530;28;19935;-60
2023/01/03 08:29:45;;;;;;;;;;;;;;;8.02;100.00;99219.72;5124843;28;19931;-60
2023/01/03 08:32:11;;;;;;;;;;;;;;;8.09;100.00;99217.84;5121586;28;19935;-60
2023/01/03 08:34:40;;;;;;;;;;;;;;;8.11;100.00;99221.94;5123538;28;19924;-60
2023/01/03 08:37:09;;;;;;;;;;;;;;;8.07;100.00;99215.44;5126239;28;19931;-60
2023/01/03 08:39:39;;;;;;;;;;;;;;;8.08;100.00;99221.53;5125785;28;20001;-60
2023/01/03 08:42:07;;;;;;;;;;;;;;;8.05;100.00;99220.13;5121450;28;19920;-60
2023/01/03 08:44:34;;;;;;;;;;;;;;;8.06;100.00;99231.59;5122715;28;19927;-60
2023/01/03 08:47:02;;;;;;;;;;;;;;;8.09;100.00;99233.81;5126060;28;19980;-60
2023/01/03 08:49:29;;;;;;;;;;;;;;;8.09;100.00;99223.19;5126230;28;19930;-60
2023/01/03 08:51:55;;;;;;;;;;;;;;;8.12;100.00;99233.38;5122838;28;19931;-60
2023/01/03 08:54:23;;;;;;;;;;;;;;;8.14;100.00;99236.63;5122513;28;19927;-60
2023/01/03 08:56:49;;;;;;;;;;;;;;;8.17;100.00;99236.22;5118789;28;19935;-60
2023/01/03 08:59:15;;;;;;;;;;;;;;;8.15;100.00;99238.28;5129970;28;19930;-60
2023/01/03 09:01:42;;;;;;;;;;;;;;;8.14;100.00;99250.75;5128253;28;19924;-60
2023/01/03 09:04:08;;;;;;;;;;;;;;;8.10;100.00;99249.59;5126119;28;19935;-60
2023/01/03 09:06:34;;;;;;;;;;;;;;;8.21;100.00;99253.38;5126339;28;20009;-60
2023/01/03 09:09:03;;;;;;;;;;;;;;;8.22;100.00;99254.22;5129587;27;19931;-60
2023/01/03 09:11:31;;;;;;;;;;;;;;;8.27;100.00;99255.19;5129953;28;20554;-60
2023/01/03 09:13:57;;;;;;;;;;;;;;;8.27;100.00;99249.88;5126037;28;19927;-60
2023/01/03 09:16:23;;;;;;;;;;;;;;;8.28;100.00;99237.41;5126000;28;19924;-60
2023/01/03 09:18:50;;;;;;;;;;;;;;;8.28;100.00;99248.88;5128458;28;19920;-60
2023/01/03 09:21:16;;;;;;;;;;;;;;;8.28;100.00;99253.38;5129764;28;19927;-60
2023/01/03 09:23:42;;;;;;;;;;;;;;;8.27;100.00;99265.00;5128237;28;19924;-60
2023/01/03 09:26:09;;;;;;;;;;;;;;;8.24;100.00;99266.25;5117575;28;19931;-59
2023/01/03 09:28:36;;;;;;;;;;;;;;;8.20;100.00;99265.06;5124990;28;20311;-59
2023/01/03 09:31:04;;;;;;;;;;;;;;;8.21;100.00;99269.34;5125926;28;19942;-59
2023/01/03 09:33:30;;;;;;;;;;;;;;;8.21;100.00;99266.69;5125942;28;19924;-59
2023/01/03 09:35:57;;;;;;;;;;;;;;;8.26;100.00;99266.88;5129159;28;19924;-59
2023/01/03 09:38:23;;;;;;;;;;;;;;;8.27;100.00;99265.84;5128624;28;19924;-59
2023/01/03 09:40:57;;;;;;;;;;;;;;;8.27;100.00;99265.00;5126669;28;19930;-59
2023/01/03 09:43:25;;;;;;;;;;;;;;;8.28;100.00;99274.66;5125545;28;19924;-59
2023/01/03 09:45:55;;;;;;;;;;;;;;;8.26;100.00;99263.41;5128334;28;19935;-59
2023/01/03 09:48:25;;;;;;;;;;;;;;;8.37;100.00;99266.22;5129150;28;19923;-59
2023/01/03 09:50:51;;;;;;;;;;;;;;;8.38;100.00;99270.50;5126245;28;19924;-59
2023/01/03 10:04:53;;;;;;;;;;;;;;;8.38;100.00;99259.88;5128503;28;20003;-59
2023/01/03 10:07:27;;;;;;;;;;;;;;;8.36;100.00;99253.94;5124554;28;19924;-59
2023/01/03 10:09:59;;;;;;;;;;;;;;;8.41;100.00;99254.13;5128360;28;19932;-60
2023/01/03 10:12:28;;;;;;;;;;;;;;;8.35;100.00;99254.16;5128791;28;19931;-59
2023/01/03 10:15:02;;;;;;;;;;;;;;;8.28;100.00;99259.53;5125196;28;19943;-59
2023/01/03 10:17:34;;;;;;;;;;;;;;;8.29;100.00;99250.50;5124937;28;19924;-59
2023/01/03 10:20:13;;;;;;;;;;;;;;;8.13;100.00;99251.00;5125331;28;19939;-60
2023/01/03 10:22:40;;;;;;;;;;;;;;;8.16;100.00;99242.59;5126098;28;19924;-60
2023/01/03 10:25:10;;;;;;;;;;;;;;;8.30;100.00;99248.66;5123666;28;20025;-60
2023/01/03 10:27:39;;;;;;;;;;;;;;;8.16;100.00;99250.56;5115783;28;19927;-59
2023/01/03 10:30:11;;;;;;;;;;;;;;;8.27;100.00;99255.19;5128213;28;19950;-59
2023/01/03 10:32:54;;;;;;;;;;;;;;;8.35;100.00;99260.31;5127267;28;20015;-60
2023/01/03 10:35:22;;;;;;;;;;;;;;;8.38;100.00;99254.53;5124555;28;19924;-60
2023/01/03 10:37:51;;;;;;;;;;;;;;;8.20;100.00;99243.75;5126361;28;19935;-60
2023/01/03 10:40:17;;;;;;;;;;;;;;;8.14;100.00;99244.63;5127870;28;19923;-60
2023/01/03 10:42:43;;;;;;;;;;;;;;;8.20;100.00;99249.09;5126264;28;19923;-60
2023/01/03 10:45:12;;;;;;;;;;;;;;;8.40;100.00;99252.47;5124229;28;19924;-60
2023/01/03 10:47:38;;;;;;;;;;;;;;;8.15;100.00;99246.25;5124931;28;19924;-60
2023/01/03 10:50:07;;;;;;;;;;;;;;;8.20;100.00;99243.75;5127617;28;19946;-60
2023/01/03 10:52:35;;;;;;;;;;;;;;;8.38;100.00;99237.75;5127536;28;19935;-60
2023/01/03 10:55:04;;;;;;;;;;;;;;;8.37;100.00;99231.59;5115696;28;19924;-60
2023/01/03 10:57:35;;;;;;;;;;;;;;;8.25;100.00;99235.97;5123737;28;19920;-60
2023/01/03 11:00:01;;;;;;;;;;;;;;;8.39;100.00;99242.03;5123702;28;19946;-60
2023/01/03 11:02:27;;;;;;;;;;;;;;;8.42;100.00;99231.75;5123790;28;19935;-60
2023/01/03 11:05:11;;;;;;;;;;;;;;;8.21;100.00;99231.28;5126728;28;19924;-60
2023/01/03 11:07:42;;;;;;;;;;;;;;;8.40;100.00;99247.16;5126408;28;19928;-59
2023/01/03 11:10:15;;;;;;;;;;;;;;;8.53;100.00;99239.06;5123539;28;19925;-59
2023/01/03 11:12:41;;;;;;;;;;;;;;;8.47;100.00;99247.91;5124668;28;19973;-59
2023/01/03 11:15:14;;;;;;;;;;;;;;;8.52;100.00;99237.44;5127008;28;19924;-60
2023/01/03 11:17:51;;;;;;;;;;;;;;;8.56;100.00;99243.97;5125621;28;19924;-60
2023/01/03 11:20:18;;;;;;;;;;;;;;;8.56;100.00;99238.63;5122446;28;19924;-60
2023/01/03 11:22:47;;;;;;;;;;;;;;;8.50;100.00;99234.19;5124978;28;19954;-60
2023/01/03 11:25:25;;;;;;;;;;;;;;;8.31;100.00;99231.66;5121127;28;19969;-60
2023/01/03 11:27:58;;;;;;;;;;;;;;;8.46;100.00;99222.31;5123172;28;19927;-60
2023/01/03 11:30:28;;;;;;;;;;;;;;;8.39;100.00;99218.88;5123363;28;19920;-60
2023/01/03 11:33:07;;;;;;;;;;;;;;;8.49;100.00;99224.56;5126012;28;19924;-60
2023/01/03 11:35:44;;;;;;;;;;;;;;;8.57;100.00;99226.91;5126430;28;19923;-60
2023/01/03 11:38:19;;;;;;;;;;;;;;;8.59;100.00;99224.88;5122978;28;19920;-60
2023/01/03 11:40:51;;;;;;;;;;;;;;;8.65;100.00;99226.66;5124712;28;19931;-60
2023/01/03 11:43:24;;;;;;;;;;;;;;;8.65;100.00;99218.69;5126081;28;19924;-60
2023/01/03 11:46:05;;;;;;;;;;;;;;;8.60;100.00;99215.06;5124004;28;19935;-60
2023/01/03 11:48:59;;;;;;;;;;;;;;;8.61;100.00;99217.47;5122907;28;19950;-60
2023/01/03 11:51:29;;;;;;;;;;;;;;;8.73;100.00;99220.22;5108886;28;20024;-60
2023/01/03 11:54:04;;;;;;;;;;;;;;;8.76;100.00;99209.13;5122988;28;19924;-60
2023/01/03 11:56:33;;;;;;;;;;;;;;;8.60;100.00;99215.06;5114240;28;19923;-60
2023/01/03 11:59:06;;;;;;;;;;;;;;;8.72;100.00;99209.81;5122740;28;19919;-60
2023/01/03 12:01:45;;;;;;;;;;;;;;;8.73;100.00;99214.13;5122548;28;19924;-61
2023/01/03 12:04:23;;;;;;;;;;;;;;;8.79;100.00;99213.25;5126098;28;19927;-60
2023/01/03 12:06:54;;;;;;;;;;;;;;;8.79;100.00;99200.72;5123644;28;20577;-60
2023/01/03 12:09:25;;;;;;;;;;;;;;;8.74;100.00;99211.22;5122642;28;19936;-60
2023/01/03 12:12:07;;;;;;;;;;;;;;;8.80;100.00;99214.84;5125224;28;19931;-60
2023/01/03 12:14:37;;;;;;;;;;;;;;;8.74;100.00;99215.72;5125874;28;19924;-60
2023/01/03 12:17:06;;;;;;;;;;;;;;;8.77;100.00;99210.78;5122437;28;19920;-60
2023/01/03 12:19:37;;;;;;;;;;;;;;;8.75;100.00;99212.03;5122243;28;19924;-60
2023/01/03 12:22:06;;;;;;;;;;;;;;;8.74;100.00;99216.53;5113948;28;19924;-60
2023/01/03 12:24:39;;;;;;;;;;;;;;;8.70;100.00;99219.88;5113948;28;19924;-60
2023/01/03 12:32:02;;;;;;;;;;;;;;;8.62;100.00;99210.31;5122400;27;19968;-75
2023/01/03 12:34:32;;;;;;;;;;;;;;;8.60;100.00;99207.06;5113656;28;19970;-74
2023/01/03 12:37:04;;;;;;;;;;;;;;;8.49;100.00;99203.25;5113929;28;19963;-74
2023/01/03 12:39:37;;;;;;;;;;;;;;;8.66;100.00;99204.31;5111687;28;19992;-74
2023/01/03 12:42:07;;;;;;;;;;;;;;;8.63;100.00;99199.41;5104333;28;20575;-75
2023/01/03 12:44:37;;;;;;;;;;;;;;;8.75;100.00;99204.06;5111799;28;19950;-74
2023/01/03 12:47:05;;;;;;;;;;;;;;;8.70;100.00;99207.34;5103993;28;19924;-75
2023/01/03 12:49:34;;;;;;;;;;;;;;;8.72;100.00;99207.97;5103875;28;19931;-75
2023/01/03 12:52:01;;;;;;;;;;;;;;;8.44;100.00;99203.09;5111495;28;19921;-75
2023/01/03 12:54:35;;;;;;;;;;;;;;;8.44;100.00;99202.28;5110929;28;19931;-75
2023/01/03 12:57:09;;;;;;;;;;;;;;;8.46;100.00;99203.69;5112252;28;19931;-75
2023/01/03 12:59:44;;;;;;;;;;;;;;;8.67;100.00;99195.28;5111883;28;19959;-74
2023/01/03 13:02:19;;;;;;;;;;;;;;;8.74;100.00;99197.91;5113277;28;19924;-75
2023/01/03 13:04:49;;;;;;;;;;;;;;;8.81;100.00;99190.66;5112769;28;19928;-75
2023/01/03 13:07:17;;;;;;;;;;;;;;;8.80;100.00;99189.03;5111094;28;19959;-74
2023/01/03 13:09:45;;;;;;;;;;;;;;;8.82;100.00;99180.84;5112842;28;20651;-74
2023/01/03 13:12:13;;;;;;;;;;;;;;;8.86;100.00;99182.00;5112952;28;20546;-74
2023/01/03 13:14:50;;;;;;;;;;;;;;;8.85;100.00;99173.19;5111937;28;20007;-74
2023/01/03 13:17:19;;;;;;;;;;;;;;;8.62;100.00;99175.69;5109702;28;19924;-75
2023/01/03 13:19:55;;;;;;;;;;;;;;;8.54;100.00;99176.78;5112132;28;19924;-75
2023/01/03 13:22:37;;;;;;;;;;;;;;;8.51;100.00;99174.53;5113135;28;20673;-75
2023/01/03 13:25:22;;;;;;;;;;;;;;;8.63;100.00;99166.69;5101241;28;19924;-75
2023/01/03 13:27:50;;;;;;;;;;;;;;;8.73;100.00;99176.81;5110610;28;20439;-75
2023/01/03 13:30:21;;;;;;;;;;;;;;;8.74;100.00;99173.13;5116380;28;20023;-75
2023/01/03 13:32:50;;;;;;;;;;;;;;;8.74;100.00;99160.63;5132844;27;20011;-74
2023/01/03 13:35:28;;;;;;;;;;;;;;;8.76;100.00;99163.06;5116305;27;20019;-74
2023/01/03 13:37:57;;;;;;;;;;;;;;;8.77;100.00;99175.34;5131494;27;20611;-75
2023/01/03 13:40:24;;;;;;;;;;;;;;;8.78;100.00;99174.31;5130873;28;19924;-75
2023/01/03 13:43:01;;;;;;;;;;;;;;;8.79;100.00;99170.63;5103761;28;19951;-75
2023/01/03 13:45:54;;;;;;;;;;;;;;;8.78;100.00;99168.97;5120640;28;19931;-75
2023/01/03 13:48:27;;;;;;;;;;;;;;;8.78;100.00;99171.66;5098757;28;19924;-75
2023/01/03 13:51:20;;;;;;;;;;;;;;;8.77;100.00;99181.47;5119636;28;19928;-75
2023/01/03 13:53:52;;;;;;;;;;;;;;;8.76;100.00;99185.16;5096521;27;19983;-75
2023/01/03 13:56:20;;;;;;;;;;;;;;;8.81;100.00;99187.19;5127833;27;19971;-75
2023/01/03 13:58:48;;;;;;;;;;;;;;;8.84;100.00;99189.41;5100395;28;19963;-75
2023/01/03 14:01:20;;;;;;;;;;;;;;;8.85;100.00;99183.84;5102446;28;20451;-75
2023/01/03 14:03:57;;;;;;;;;;;;;;;8.83;100.00;99190.44;5100001;28;20363;-75